sensor_id;sensor_type;location;lat;lon;timestamp;pressure;altitude;pressure_sealevel;temperature;humidity
76108;BME280;64834;52.516;10.528;2023-04-08T00:02:15;101676.06;;;4.81;93.25
76108;BME280;64834;52.516;10.528;2023-04-08T00:04:40;101669.63;;;4.86;93.23
76108;BME280;64834;52.516;10.528;2023-04-08T00:07:05;101677.69;;;4.90;92.88
76108;BME280;64834;52.516;10.528;2023-04-08T00:09:31;101673.28;;;4.88;93.47
76108;BME280;64834;52.516;10.528;2023-04-08T00:11:56;101671.34;;;4.77;93.58
76108;BME280;64834;52.516;10.528;2023-04-08T00:14:22;101674.53;;;4.83;93.36
76108;BME280;64834;52.516;10.528;2023-04-08T00:16:47;101669.00;;;4.89;93.07
76108;BME280;64834;52.516;10.528;2023-04-08T00:19:13;101673.72;;;4.93;93.65
76108;BME280;64834;52.516;10.528;2023-04-08T00:21:38;101675.31;;;5.01;93.09
76108;BME280;64834;52.516;10.528;2023-04-08T00:24:03;101665.94;;;4.93;93.15
76108;BME280;64834;52.516;10.528;2023-04-08T00:26:29;101677.16;;;5.02;93.09
76108;BME280;64834;52.516;10.528;2023-04-08T00:28:54;101670.91;;;5.00;92.42
76108;BME280;64834;52.516;10.528;2023-04-08T00:31:20;101679.22;;;4.87;93.72
76108;BME280;64834;52.516;10.528;2023-04-08T00:33:45;101682.13;;;4.91;93.69
76108;BME280;64834;52.516;10.528;2023-04-08T00:36:11;101680.28;;;4.90;93.27
76108;BME280;64834;52.516;10.528;2023-04-08T00:38:36;101680.72;;;4.94;93.14
76108;BME280;64834;52.516;10.528;2023-04-08T00:41:01;101684.88;;;4.92;92.98
76108;BME280;64834;52.516;10.528;2023-04-08T00:43:27;101677.56;;;4.88;93.44
76108;BME280;64834;52.516;10.528;2023-04-08T00:45:52;101677.56;;;4.88;93.57
76108;BME280;64834;52.516;10.528;2023-04-08T00:48:17;101679.22;;;4.87;93.40
76108;BME280;64834;52.516;10.528;2023-04-08T00:50:44;101670.53;;;4.87;93.46
76108;BME280;64834;52.516;10.528;2023-04-08T00:53:12;101672.22;;;4.86;93.82
76108;BME280;64834;52.516;10.528;2023-04-08T00:55:40;101670.06;;;4.91;93.54
76108;BME280;64834;52.516;10.528;2023-04-08T00:58:05;101668.22;;;4.90;93.53
76108;BME280;64834;52.516;10.528;2023-04-08T01:00:31;101658.72;;;4.99;93.20
76108;BME280;64834;52.516;10.528;2023-04-08T01:03:13;101654.97;;;4.87;93.46
76108;BME280;64834;52.516;10.528;2023-04-08T01:06:06;101650.16;;;5.00;93.03
76108;BME280;64834;52.516;10.528;2023-04-08T01:08:37;101641.59;;;5.01;92.85
76108;BME280;64834;52.516;10.528;2023-04-08T01:11:04;101643.44;;;5.02;93.15
76108;BME280;64834;52.516;10.528;2023-04-08T01:13:37;101647.09;;;5.04;92.75
76108;BME280;64834;52.516;10.528;2023-04-08T01:16:04;101651.78;;;5.08;92.45
76108;BME280;64834;52.516;10.528;2023-04-08T01:18:32;101640.94;;;5.12;92.61
76108;BME280;64834;52.516;10.528;2023-04-08T01:20:58;101640.69;;;5.01;92.88
76108;BME280;64834;52.516;10.528;2023-04-08T01:24:05;101646.56;;;4.90;93.49
76108;BME280;64834;52.516;10.528;2023-04-08T01:26:34;101643.81;;;4.97;93.21
76108;BME280;64834;52.516;10.528;2023-04-08T01:29:01;101650.31;;;5.02;92.50
76108;BME280;64834;52.516;10.528;2023-04-08T01:31:28;101649.81;;;4.87;93.13
76108;BME280;64834;52.516;10.528;2023-04-08T01:33:58;101649.59;;;4.94;92.98
76108;BME280;64834;52.516;10.528;2023-04-08T01:36:25;101650.31;;;5.02;92.53
76108;BME280;64834;52.516;10.528;2023-04-08T01:38:52;101657.50;;;4.96;92.66
76108;BME280;64834;52.516;10.528;2023-04-08T01:41:17;101662.75;;;4.87;93.57
76108;BME280;64834;52.516;10.528;2023-04-08T01:43:43;101663.81;;;4.89;93.76
76108;BME280;64834;52.516;10.528;2023-04-08T01:46:11;101663.47;;;4.95;92.84
76108;BME280;64834;52.516;10.528;2023-04-08T01:48:37;101667.97;;;5.06;92.39
76108;BME280;64834;52.516;10.528;2023-04-08T01:51:05;101665.03;;;4.93;94.04
76108;BME280;64834;52.516;10.528;2023-04-08T01:53:31;101654.78;;;4.94;93.81
76108;BME280;64834;52.516;10.528;2023-04-08T01:56:04;101655.75;;;4.86;94.53
76108;BME280;64834;52.516;10.528;2023-04-08T01:58:36;101655.47;;;4.83;95.34
76108;BME280;64834;52.516;10.528;2023-04-08T02:01:05;101658.81;;;4.82;94.88
76108;BME280;64834;52.516;10.528;2023-04-08T02:03:35;101662.19;;;4.81;95.20
76108;BME280;64834;52.516;10.528;2023-04-08T02:06:01;101659.06;;;4.94;94.42
76108;BME280;64834;52.516;10.528;2023-04-08T02:08:27;101662.75;;;4.87;95.05
76108;BME280;64834;52.516;10.528;2023-04-08T02:10:52;101659.06;;;4.94;94.60
76108;BME280;64834;52.516;10.528;2023-04-08T02:13:17;101663.78;;;4.98;94.54
76108;BME280;64834;52.516;10.528;2023-04-08T02:15:50;101663.34;;;4.93;94.30
76108;BME280;64834;52.516;10.528;2023-04-08T02:18:26;101663.47;;;4.95;93.96
76108;BME280;64834;52.516;10.528;2023-04-08T02:21:13;101661.78;;;4.95;94.29
76108;BME280;64834;52.516;10.528;2023-04-08T02:23:41;101664.72;;;4.90;93.89
76108;BME280;64834;52.516;10.528;2023-04-08T02:26:12;101662.22;;;5.00;93.33
76108;BME280;64834;52.516;10.528;2023-04-08T02:28:40;101656.56;;;5.04;93.53
76108;BME280;64834;52.516;10.528;2023-04-08T02:31:09;101661.00;;;4.96;94.28
76108;BME280;64834;52.516;10.528;2023-04-08T02:33:38;101662.88;;;4.97;93.79
76108;BME280;64834;52.516;10.528;2023-04-08T02:36:04;101664.56;;;4.97;93.78
76108;BME280;64834;52.516;10.528;2023-04-08T02:38:30;101667.28;;;4.98;93.96
76108;BME280;64834;52.516;10.528;2023-04-08T02:40:56;101671.56;;;4.98;94.28
76108;BME280;64834;52.516;10.528;2023-04-08T02:43:21;101673.31;;;5.07;93.69
76108;BME280;64834;52.516;10.528;2023-04-08T02:45:51;101674.75;;;4.95;93.79
76108;BME280;64834;52.516;10.528;2023-04-08T02:48:16;101671.13;;;4.93;94.06
76108;BME280;64834;52.516;10.528;2023-04-08T02:50:41;101675.84;;;4.97;93.56
76108;BME280;64834;52.516;10.528;2023-04-08T02:53:08;101675.66;;;4.96;93.33
76108;BME280;64834;52.516;10.528;2023-04-08T02:55:33;101671.00;;;4.92;93.83
76108;BME280;64834;52.516;10.528;2023-04-08T02:57:59;101669.44;;;4.94;93.69
76108;BME280;64834;52.516;10.528;2023-04-08T03:00:24;101671.69;;;4.99;93.56
76108;BME280;64834;52.516;10.528;2023-04-08T03:02:50;101681.44;;;5.02;93.31
76108;BME280;64834;52.516;10.528;2023-04-08T03:05:15;101683.03;;;4.91;94.01
76108;BME280;64834;52.516;10.528;2023-04-08T03:07:41;101676.94;;;4.91;94.06
76108;BME280;64834;52.516;10.528;2023-04-08T03:10:07;101678.75;;;4.92;94.10
76108;BME280;64834;52.516;10.528;2023-04-08T03:12:32;101683.63;;;4.97;93.44
76108;BME280;64834;52.516;10.528;2023-04-08T03:14:58;101679.69;;;4.92;94.28
76108;BME280;64834;52.516;10.528;2023-04-08T03:17:24;101687.47;;;4.92;94.17
76108;BME280;64834;52.516;10.528;2023-04-08T03:19:49;101684.56;;;4.89;95.06
76108;BME280;64834;52.516;10.528;2023-04-08T03:22:15;101690.97;;;4.93;94.43
76108;BME280;64834;52.516;10.528;2023-04-08T03:24:40;101691.41;;;4.97;93.87
76108;BME280;64834;52.516;10.528;2023-04-08T03:27:06;101687.25;;;4.99;94.06
76108;BME280;64834;52.516;10.528;2023-04-08T03:29:32;101686.78;;;5.03;93.64
76108;BME280;64834;52.516;10.528;2023-04-08T03:31:57;101688.28;;;5.01;93.67
76108;BME280;64834;52.516;10.528;2023-04-08T03:34:23;101689.00;;;5.09;93.26
76108;BME280;64834;52.516;10.528;2023-04-08T03:36:48;101690.75;;;5.00;93.95
76108;BME280;64834;52.516;10.528;2023-04-08T03:39:13;101684.78;;;5.01;93.34
76108;BME280;64834;52.516;10.528;2023-04-08T03:41:39;101701.25;;;5.01;93.47
76108;BME280;64834;52.516;10.528;2023-04-08T03:44:04;101688.81;;;4.97;93.77
76108;BME280;64834;52.516;10.528;2023-04-08T03:46:29;101689.66;;;5.06;93.24
76108;BME280;64834;52.516;10.528;2023-04-08T03:48:55;101685.91;;;4.94;93.68
76108;BME280;64834;52.516;10.528;2023-04-08T03:51:20;101688.50;;;4.94;93.82
76108;BME280;64834;52.516;10.528;2023-04-08T03:53:46;101695.50;;;4.95;94.29
76108;BME280;64834;52.516;10.528;2023-04-08T03:56:12;101703.00;;;4.92;94.37
76108;BME280;64834;52.516;10.528;2023-04-08T03:58:37;101697.53;;;4.89;94.33
76108;BME280;64834;52.516;10.528;2023-04-08T04:01:03;101698.44;;;4.90;94.58
76108;BME280;64834;52.516;10.528;2023-04-08T04:03:28;101692.91;;;4.95;94.33
76108;BME280;64834;52.516;10.528;2023-04-08T04:05:53;101695.50;;;4.95;93.93
76108;BME280;64834;52.516;10.528;2023-04-08T04:08:19;101701.44;;;5.03;94.26
76108;BME280;64834;52.516;10.528;2023-04-08T04:10:44;101702.63;;;5.06;93.87
76108;BME280;64834;52.516;10.528;2023-04-08T04:13:09;101709.34;;;5.04;93.83
76108;BME280;64834;52.516;10.528;2023-04-08T04:15:39;101712.16;;;4.97;94.37
76108;BME280;64834;52.516;10.528;2023-04-08T04:18:05;101716.84;;;5.01;94.40
76108;BME280;64834;52.516;10.528;2023-04-08T04:20:30;101717.91;;;5.03;94.14
76108;BME280;64834;52.516;10.528;2023-04-08T04:22:55;101721.69;;;5.07;94.23
76108;BME280;64834;52.516;10.528;2023-04-08T04:25:21;101722.03;;;5.01;94.05
76108;BME280;64834;52.516;10.528;2023-04-08T04:27:46;101721.69;;;5.07;93.51
76108;BME280;64834;52.516;10.528;2023-04-08T04:30:12;101727.00;;;5.08;94.19
76108;BME280;64834;52.516;10.528;2023-04-08T04:32:40;101727.59;;;5.14;93.76
76108;BME280;64834;52.516;10.528;2023-04-08T04:35:05;101734.06;;;5.01;94.83
76108;BME280;64834;52.516;10.528;2023-04-08T04:37:31;101732.91;;;4.97;95.07
76108;BME280;64834;52.516;10.528;2023-04-08T04:39:56;101736.59;;;4.91;95.12
76108;BME280;64834;52.516;10.528;2023-04-08T04:42:21;101736.41;;;4.98;95.47
76108;BME280;64834;52.516;10.528;2023-04-08T04:44:47;101735.97;;;4.93;94.81
76108;BME280;64834;52.516;10.528;2023-04-08T04:47:12;101732.91;;;4.97;95.07
76108;BME280;64834;52.516;10.528;2023-04-08T04:49:37;101737.75;;;5.03;94.98
76108;BME280;64834;52.516;10.528;2023-04-08T04:52:04;101734.53;;;5.05;94.86
76108;BME280;64834;52.516;10.528;2023-04-08T04:54:29;101741.34;;;5.13;94.18
76108;BME280;64834;52.516;10.528;2023-04-08T04:56:54;101743.53;;;5.00;94.91
76108;BME280;64834;52.516;10.528;2023-04-08T04:59:20;101737.81;;;5.13;94.89
76108;BME280;64834;52.516;10.528;2023-04-08T05:01:45;101742.78;;;5.01;94.96
76108;BME280;64834;52.516;10.528;2023-04-08T05:04:11;101754.81;;;5.01;95.10
76108;BME280;64834;52.516;10.528;2023-04-08T05:06:36;101751.97;;;4.98;95.90
76108;BME280;64834;52.516;10.528;2023-04-08T05:09:01;101762.94;;;4.95;95.90
76108;BME280;64834;52.516;10.528;2023-04-08T05:11:27;101759.50;;;4.86;96.03
76108;BME280;64834;52.516;10.528;2023-04-08T05:13:52;101764.34;;;4.92;96.39
76108;BME280;64834;52.516;10.528;2023-04-08T05:16:18;101768.19;;;4.86;96.52
76108;BME280;64834;52.516;10.528;2023-04-08T05:18:43;101760.69;;;4.90;96.54
76108;BME280;64834;52.516;10.528;2023-04-08T05:21:09;101764.69;;;4.86;96.75
76108;BME280;64834;52.516;10.528;2023-04-08T05:23:34;101759.34;;;4.84;97.03
76108;BME280;64834;52.516;10.528;2023-04-08T05:26:00;101758.56;;;4.85;97.34
76108;BME280;64834;52.516;10.528;2023-04-08T05:28:25;101758.53;;;4.94;96.73
76108;BME280;64834;52.516;10.528;2023-04-08T05:30:52;101767.81;;;5.01;97.00
76108;BME280;64834;52.516;10.528;2023-04-08T05:33:18;101773.50;;;4.97;97.00
76108;BME280;64834;52.516;10.528;2023-04-08T05:35:43;101777.13;;;4.99;96.50
76108;BME280;64834;52.516;10.528;2023-04-08T05:38:09;101774.88;;;4.93;96.22
76108;BME280;64834;52.516;10.528;2023-04-08T05:40:35;101777.31;;;4.92;97.08
76108;BME280;64834;52.516;10.528;2023-04-08T05:43:00;101776.22;;;4.98;96.80
76108;BME280;64834;52.516;10.528;2023-04-08T05:45:27;101778.31;;;5.02;96.51
76108;BME280;64834;52.516;10.528;2023-04-08T05:47:52;101784.72;;;5.06;96.42
76108;BME280;64834;52.516;10.528;2023-04-08T05:50:17;101781.88;;;4.94;96.78
76108;BME280;64834;52.516;10.528;2023-04-08T05:52:43;101783.28;;;4.91;96.56
76108;BME280;64834;52.516;10.528;2023-04-08T05:55:10;101787.19;;;4.96;96.64
76108;BME280;64834;52.516;10.528;2023-04-08T05:57:35;101785.34;;;5.03;96.62
76108;BME280;64834;52.516;10.528;2023-04-08T06:00:00;101795.16;;;4.97;96.28
76108;BME280;64834;52.516;10.528;2023-04-08T06:02:26;101801.06;;;4.96;96.85
76108;BME280;64834;52.516;10.528;2023-04-08T06:04:51;101800.16;;;4.96;96.36
76108;BME280;64834;52.516;10.528;2023-04-08T06:07:16;101796.81;;;4.97;96.27
76108;BME280;64834;52.516;10.528;2023-04-08T06:09:42;101801.38;;;4.99;96.10
76108;BME280;64834;52.516;10.528;2023-04-08T06:12:07;101802.59;;;5.03;95.73
76108;BME280;64834;52.516;10.528;2023-04-08T06:14:32;101807.47;;;5.00;95.96
76108;BME280;64834;52.516;10.528;2023-04-08T06:16:58;101806.09;;;5.03;95.94
76108;BME280;64834;52.516;10.528;2023-04-08T06:19:23;101814.50;;;5.01;96.19
76108;BME280;64834;52.516;10.528;2023-04-08T06:21:48;101823.50;;;5.04;96.08
76108;BME280;64834;52.516;10.528;2023-04-08T06:24:15;101816.28;;;5.10;95.36
76108;BME280;64834;52.516;10.528;2023-04-08T06:26:40;101816.16;;;5.00;96.13
76108;BME280;64834;52.516;10.528;2023-04-08T06:29:06;101820.25;;;5.16;95.72
76108;BME280;64834;52.516;10.528;2023-04-08T06:31:32;101825.66;;;5.27;95.48
76108;BME280;64834;52.516;10.528;2023-04-08T06:33:57;101821.75;;;5.22;94.99
76108;BME280;64834;52.516;10.528;2023-04-08T06:36:22;101828.31;;;5.19;95.49
76108;BME280;64834;52.516;10.528;2023-04-08T06:38:48;101827.09;;;5.15;95.33
76108;BME280;64834;52.516;10.528;2023-04-08T06:41:13;101826.47;;;5.18;95.40
76108;BME280;64834;52.516;10.528;2023-04-08T06:43:38;101825.25;;;5.14;95.27
76108;BME280;64834;52.516;10.528;2023-04-08T06:46:04;101829.22;;;5.19;95.71
76108;BME280;64834;52.516;10.528;2023-04-08T06:48:29;101835.75;;;5.24;95.63
76108;BME280;64834;52.516;10.528;2023-04-08T06:50:55;101837.25;;;5.31;95.00
76108;BME280;64834;52.516;10.528;2023-04-08T06:53:22;101837.59;;;5.25;94.62
76108;BME280;64834;52.516;10.528;2023-04-08T06:55:48;101842.13;;;5.36;94.78
76108;BME280;64834;52.516;10.528;2023-04-08T06:58:13;101841.00;;;5.43;94.46
76108;BME280;64834;52.516;10.528;2023-04-08T07:00:39;101844.97;;;5.39;94.40
76108;BME280;64834;52.516;10.528;2023-04-08T07:03:04;101842.50;;;5.50;93.77
76108;BME280;64834;52.516;10.528;2023-04-08T07:05:30;101843.28;;;5.49;94.37
76108;BME280;64834;52.516;10.528;2023-04-08T07:07:55;101847.38;;;5.47;94.26
76108;BME280;64834;52.516;10.528;2023-04-08T07:10:21;101845.88;;;5.40;93.72
76108;BME280;64834;52.516;10.528;2023-04-08T07:12:46;101843.41;;;5.50;93.75
76108;BME280;64834;52.516;10.528;2023-04-08T07:15:11;101850.03;;;5.38;93.94
76108;BME280;64834;52.516;10.528;2023-04-08T07:17:37;101848.34;;;5.38;93.83
76108;BME280;64834;52.516;10.528;2023-04-08T07:20:04;101855.47;;;5.50;93.95
76108;BME280;64834;52.516;10.528;2023-04-08T07:22:29;101858.34;;;5.53;93.53
76108;BME280;64834;52.516;10.528;2023-04-08T07:24:55;101854.09;;;5.53;93.36
76108;BME280;64834;52.516;10.528;2023-04-08T07:27:20;101851.63;;;5.55;93.42
76108;BME280;64834;52.516;10.528;2023-04-08T07:29:45;101860.81;;;5.51;94.00
76108;BME280;64834;52.516;10.528;2023-04-08T07:32:10;101859.66;;;5.66;93.21
76108;BME280;64834;52.516;10.528;2023-04-08T07:34:36;101865.59;;;5.65;92.84
76108;BME280;64834;52.516;10.528;2023-04-08T07:37:01;101868.41;;;5.58;93.21
76108;BME280;64834;52.516;10.528;2023-04-08T07:39:27;101875.41;;;5.59;93.30
76108;BME280;64834;52.516;10.528;2023-04-08T07:41:52;101871.16;;;5.60;93.32
76108;BME280;64834;52.516;10.528;2023-04-08T07:44:17;101872.41;;;5.55;93.98
76108;BME280;64834;52.516;10.528;2023-04-08T07:46:44;101873.56;;;5.67;93.47
76108;BME280;64834;52.516;10.528;2023-04-08T07:49:15;101869.16;;;5.57;94.28
76108;BME280;64834;52.516;10.528;2023-04-08T07:51:40;101876.94;;;5.66;93.28
76108;BME280;64834;52.516;10.528;2023-04-08T07:54:06;101871.81;;;5.76;93.33
76108;BME280;64834;52.516;10.528;2023-04-08T07:56:31;101867.81;;;5.80;93.33
76108;BME280;64834;52.516;10.528;2023-04-08T07:58:57;101878.00;;;5.87;92.99
76108;BME280;64834;52.516;10.528;2023-04-08T08:01:22;101871.94;;;5.78;93.71
76108;BME280;64834;52.516;10.528;2023-04-08T08:03:49;101881.59;;;5.79;94.46
76108;BME280;64834;52.516;10.528;2023-04-08T08:06:15;101887.91;;;5.72;94.44
76108;BME280;64834;52.516;10.528;2023-04-08T08:08:40;101886.81;;;5.70;94.05
76108;BME280;64834;52.516;10.528;2023-04-08T08:11:05;101882.19;;;5.76;93.76
76108;BME280;64834;52.516;10.528;2023-04-08T08:13:32;101892.31;;;5.73;93.67
76108;BME280;64834;52.516;10.528;2023-04-08T08:15:57;101885.44;;;5.74;94.33
76108;BME280;64834;52.516;10.528;2023-04-08T08:18:22;101894.97;;;5.83;94.12
76108;BME280;64834;52.516;10.528;2023-04-08T08:20:48;101905.09;;;5.80;93.42
76108;BME280;64834;52.516;10.528;2023-04-08T08:23:13;101909.38;;;5.80;94.12
76108;BME280;64834;52.516;10.528;2023-04-08T08:25:38;101905.53;;;5.85;93.84
76108;BME280;64834;52.516;10.528;2023-04-08T08:28:04;101912.91;;;5.72;93.49
76108;BME280;64834;52.516;10.528;2023-04-08T08:30:29;101918.16;;;5.63;93.95
76108;BME280;64834;52.516;10.528;2023-04-08T08:32:54;101916.00;;;5.67;94.19
76108;BME280;64834;52.516;10.528;2023-04-08T08:35:23;101929.78;;;5.66;93.80
76108;BME280;64834;52.516;10.528;2023-04-08T08:37:48;101919.38;;;5.66;93.86
76108;BME280;64834;52.516;10.528;2023-04-08T08:40:14;101923.66;;;5.66;94.95
76108;BME280;64834;52.516;10.528;2023-04-08T08:42:40;101924.41;;;5.65;94.57
76108;BME280;64834;52.516;10.528;2023-04-08T08:45:06;101924.72;;;5.68;94.19
76108;BME280;64834;52.516;10.528;2023-04-08T08:47:32;101919.72;;;5.61;94.81
76108;BME280;64834;52.516;10.528;2023-04-08T08:49:57;101936.09;;;5.51;95.01
76108;BME280;64834;52.516;10.528;2023-04-08T08:52:23;101927.66;;;5.62;94.63
76108;BME280;64834;52.516;10.528;2023-04-08T08:54:56;101921.72;;;5.55;94.46
76108;BME280;64834;52.516;10.528;2023-04-08T08:57:21;101929.47;;;5.63;94.53
76108;BME280;64834;52.516;10.528;2023-04-08T08:59:47;101917.53;;;5.65;94.67
76108;BME280;64834;52.516;10.528;2023-04-08T09:02:27;101917.38;;;5.73;94.16
76108;BME280;64834;52.516;10.528;2023-04-08T09:05:01;101926.09;;;5.64;94.21
76108;BME280;64834;52.516;10.528;2023-04-08T09:07:28;101922.13;;;5.68;93.81
76108;BME280;64834;52.516;10.528;2023-04-08T09:09:55;101932.25;;;5.84;93.52
76108;BME280;64834;52.516;10.528;2023-04-08T09:12:21;101947.38;;;5.88;93.00
76108;BME280;64834;52.516;10.528;2023-04-08T09:14:47;101947.22;;;5.86;93.00
76108;BME280;64834;52.516;10.528;2023-04-08T09:17:13;101946.59;;;5.98;92.96
76108;BME280;64834;52.516;10.528;2023-04-08T09:19:38;101949.59;;;6.02;92.33
76108;BME280;64834;52.516;10.528;2023-04-08T09:22:05;101944.13;;;5.90;92.22
76108;BME280;64834;52.516;10.528;2023-04-08T09:24:31;101944.91;;;5.89;92.92
76108;BME280;64834;52.516;10.528;2023-04-08T09:26:57;101948.28;;;5.88;93.39
76108;BME280;64834;52.516;10.528;2023-04-08T09:29:23;101953.09;;;6.03;92.71
76108;BME280;64834;52.516;10.528;2023-04-08T09:31:52;101967.91;;;6.12;92.43
76108;BME280;64834;52.516;10.528;2023-04-08T09:34:18;101965.19;;;6.02;92.52
76108;BME280;64834;52.516;10.528;2023-04-08T09:36:45;101963.72;;;5.95;92.90
76108;BME280;64834;52.516;10.528;2023-04-08T09:39:13;101970.16;;;5.82;93.16
76108;BME280;64834;52.516;10.528;2023-04-08T09:41:39;101964.69;;;5.79;93.92
76108;BME280;64834;52.516;10.528;2023-04-08T09:44:06;101966.03;;;5.92;93.47
76108;BME280;64834;52.516;10.528;2023-04-08T09:49:33;101972.44;;;5.87;94.61
76108;BME280;64834;52.516;10.528;2023-04-08T09:52:12;101974.41;;;5.99;94.34
76108;BME280;64834;52.516;10.528;2023-04-08T09:55:02;101967.59;;;6.09;94.14
76108;BME280;64834;52.516;10.528;2023-04-08T09:57:39;101971.88;;;6.09;93.82
76108;BME280;64834;52.516;10.528;2023-04-08T10:00:08;101972.97;;;6.11;93.93
76108;BME280;64834;52.516;10.528;2023-04-08T10:02:44;101973.31;;;5.97;93.54
76108;BME280;64834;52.516;10.528;2023-04-08T10:05:13;101986.81;;;5.84;94.62
76108;BME280;64834;52.516;10.528;2023-04-08T10:07:40;101978.25;;;5.85;94.65
76108;BME280;64834;52.516;10.528;2023-04-08T10:10:07;101979.16;;;5.94;93.79
76108;BME280;64834;52.516;10.528;2023-04-08T10:12:35;101977.31;;;5.84;95.12
76108;BME280;64834;52.516;10.528;2023-04-08T10:17:56;101983.09;;;5.90;94.33
76108;BME280;64834;52.516;10.528;2023-04-08T10:20:45;101980.06;;;5.94;94.59
76108;BME280;64834;52.516;10.528;2023-04-08T10:23:12;101980.09;;;5.86;94.75
76108;BME280;64834;52.516;10.528;2023-04-08T10:25:48;101983.72;;;5.97;94.59
76108;BME280;64834;52.516;10.528;2023-04-08T10:30:55;101984.63;;;5.97;94.20
76108;BME280;64834;52.516;10.528;2023-04-08T10:35:59;101978.81;;;6.00;94.28
76108;BME280;64834;52.516;10.528;2023-04-08T10:38:27;101986.56;;;6.08;94.32
76108;BME280;64834;52.516;10.528;2023-04-08T10:40:53;101985.66;;;6.08;94.39
76108;BME280;64834;52.516;10.528;2023-04-08T10:43:18;101992.56;;;6.26;93.36
76108;BME280;64834;52.516;10.528;2023-04-08T10:45:44;101996.84;;;6.26;92.70
76108;BME280;64834;52.516;10.528;2023-04-08T10:48:18;102003.41;;;6.31;93.09
76108;BME280;64834;52.516;10.528;2023-04-08T10:50:51;102012.13;;;6.31;93.04
76108;BME280;64834;52.516;10.528;2023-04-08T10:53:26;102004.97;;;6.29;93.21
76108;BME280;64834;52.516;10.528;2023-04-08T10:55:52;102007.56;;;6.29;93.00
76108;BME280;64834;52.516;10.528;2023-04-08T10:58:18;102010.63;;;6.25;92.85
76108;BME280;64834;52.516;10.528;2023-04-08T11:00:43;102004.44;;;6.33;93.05
76108;BME280;64834;52.516;10.528;2023-04-08T11:03:09;101998.34;;;6.51;93.14
76108;BME280;64834;52.516;10.528;2023-04-08T11:05:36;102003.69;;;6.53;91.89
76108;BME280;64834;52.516;10.528;2023-04-08T11:08:02;102004.78;;;6.55;92.07
76108;BME280;64834;52.516;10.528;2023-04-08T11:10:29;101999.00;;;6.48;91.75
76108;BME280;64834;52.516;10.528;2023-04-08T11:12:55;102007.41;;;6.46;92.36
76108;BME280;64834;52.516;10.528;2023-04-08T11:15:21;102009.31;;;6.57;91.81
76108;BME280;64834;52.516;10.528;2023-04-08T11:17:48;102004.59;;;6.53;91.79
76108;BME280;64834;52.516;10.528;2023-04-08T11:20:14;102003.88;;;6.54;92.31
76108;BME280;64834;52.516;10.528;2023-04-08T11:22:39;101997.31;;;6.49;92.29
76108;BME280;64834;52.516;10.528;2023-04-08T11:25:08;102002.84;;;6.43;92.48
76108;BME280;64834;52.516;10.528;2023-04-08T11:27:34;101999.81;;;6.39;92.21
76108;BME280;64834;52.516;10.528;2023-04-08T11:30:01;101995.03;;;6.25;93.50
76108;BME280;64834;52.516;10.528;2023-04-08T11:32:26;101998.47;;;6.34;92.83
76108;BME280;64834;52.516;10.528;2023-04-08T11:34:53;101999.63;;;6.46;92.92
76108;BME280;64834;52.516;10.528;2023-04-08T11:37:18;102000.25;;;6.43;92.85
76108;BME280;64834;52.516;10.528;2023-04-08T11:39:45;101994.16;;;6.43;92.87
76108;BME280;64834;52.516;10.528;2023-04-08T11:42:28;101993.22;;;6.24;93.98
76108;BME280;64834;52.516;10.528;2023-04-08T11:44:54;101995.69;;;6.13;94.92
76108;BME280;64834;52.516;10.528;2023-04-08T11:47:20;102001.41;;;6.28;94.40
76108;BME280;64834;52.516;10.528;2023-04-08T11:49:46;101998.41;;;6.24;94.95
76108;BME280;64834;52.516;10.528;2023-04-08T11:52:11;102002.28;;;6.37;94.41
76108;BME280;64834;52.516;10.528;2023-04-08T11:54:40;102007.72;;;6.49;93.60
76108;BME280;64834;52.516;10.528;2023-04-08T11:57:06;101998.50;;;6.53;93.30
76108;BME280;64834;52.516;10.528;2023-04-08T11:59:36;102003.22;;;6.57;92.81
76108;BME280;64834;52.516;10.528;2023-04-08T12:02:02;102006.59;;;6.56;92.94
76108;BME280;64834;52.516;10.528;2023-04-08T12:04:28;102000.47;;;6.55;93.01
76108;BME280;64834;52.516;10.528;2023-04-08T12:06:54;101998.94;;;6.57;93.21
76108;BME280;64834;52.516;10.528;2023-04-08T12:09:20;101993.84;;;6.59;92.65
76108;BME280;64834;52.516;10.528;2023-04-08T12:11:45;101990.78;;;6.63;92.05
76108;BME280;64834;52.516;10.528;2023-04-08T12:14:10;101998.94;;;6.57;92.78
76108;BME280;64834;52.516;10.528;2023-04-08T12:16:36;101997.94;;;6.65;92.64
76108;BME280;64834;52.516;10.528;2023-04-08T12:19:01;102009.47;;;6.78;92.61
76108;BME280;64834;52.516;10.528;2023-04-08T12:21:26;102011.66;;;7.11;91.07
76108;BME280;64834;52.516;10.528;2023-04-08T12:23:52;102005.66;;;7.12;90.42
76108;BME280;64834;52.516;10.528;2023-04-08T12:26:18;102005.66;;;7.12;89.42
76108;BME280;64834;52.516;10.528;2023-04-08T12:28:44;102009.41;;;7.05;89.08
76108;BME280;64834;52.516;10.528;2023-04-08T12:31:10;102011.66;;;7.11;89.67
76108;BME280;64834;52.516;10.528;2023-04-08T12:33:35;102011.19;;;7.25;88.33
76108;BME280;64834;52.516;10.528;2023-04-08T12:36:01;102006.22;;;7.28;88.09
76108;BME280;64834;52.516;10.528;2023-04-08T12:38:26;102009.19;;;7.22;88.22
76108;BME280;64834;52.516;10.528;2023-04-08T12:40:52;102012.75;;;7.23;88.89
76108;BME280;64834;52.516;10.528;2023-04-08T12:43:17;102007.81;;;7.26;89.08
76108;BME280;64834;52.516;10.528;2023-04-08T12:45:43;102008.78;;;7.37;88.88
76108;BME280;64834;52.516;10.528;2023-04-08T12:48:08;101997.47;;;7.46;87.72
76108;BME280;64834;52.516;10.528;2023-04-08T12:50:34;101998.59;;;7.29;87.43
76108;BME280;64834;52.516;10.528;2023-04-08T12:52:59;102005.63;;;7.30;87.80
76108;BME280;64834;52.516;10.528;2023-04-08T12:55:24;102001.25;;;7.21;88.55
76108;BME280;64834;52.516;10.528;2023-04-08T12:57:50;102008.94;;;7.19;88.89
76108;BME280;64834;52.516;10.528;2023-04-08T13:00:16;102002.81;;;7.19;88.71